Time;durP1;ratioP1;P1;durP2;ratioP2;P2;SDS_P1;SDS_P2;PMS_P1;PMS_P2;Temp;Humidity;BMP_temperature;BMP_pressure;BME280_temperature;BME280_humidity;BME280_pressure;Samples;Min_cycle;Max_cycle;Signal;HPM_P1;HPM_P2
2023/05/22 00:00:43;;;;;;;10.48;7.57;;;;;;;16.46;41.49;95311.84;4922034;29;20051;-94
2023/05/22 00:03:09;;;;;;;10.23;7.10;;;;;;;16.45;41.67;95312.09;4915453;29;20054;-93
2023/05/22 00:05:37;;;;;;;13.43;7.70;;;;;;;16.34;42.56;95314.44;4924431;29;20028;-93
2023/05/22 00:08:10;;;;;;;8.90;7.25;;;;;;;16.33;42.02;95306.59;4937866;29;20481;-93
2023/05/22 00:10:36;;;;;;;8.95;7.13;;;;;;;16.31;41.76;95314.88;4912955;29;20038;-94
2023/05/22 00:13:01;;;;;;;9.07;7.53;;;;;;;16.30;42.01;95307.84;4914088;28;20490;-94
2023/05/22 00:15:26;;;;;;;10.45;7.25;;;;;;;16.15;41.28;95302.84;4941876;29;20042;-94
2023/05/22 00:17:52;;;;;;;9.90;7.10;;;;;;;16.09;42.12;95303.72;4917973;28;20049;-94
2023/05/22 00:20:18;;;;;;;8.43;7.13;;;;;;;16.09;41.43;95301.03;4932078;29;20038;-94
2023/05/22 00:22:43;;;;;;;10.60;7.60;;;;;;;16.00;42.52;95298.63;4916743;28;20046;-93
2023/05/22 00:25:10;;;;;;;12.75;7.40;;;;;;;15.94;41.80;95299.50;4942011;29;20027;-94
2023/05/22 00:27:35;;;;;;;14.88;7.90;;;;;;;15.88;43.00;95300.41;4920891;28;20047;-93
2023/05/22 00:30:02;;;;;;;10.88;7.88;;;;;;;15.73;43.37;95295.34;4907714;28;20046;-94
2023/05/22 00:32:28;;;;;;;11.53;7.37;;;;;;;15.66;42.84;95295.41;4938956;29;20788;-92
2023/05/22 00:34:54;;;;;;;8.43;7.05;;;;;;;15.64;42.94;95297.50;4931001;29;20599;-93
2023/05/22 00:37:19;;;;;;;9.43;7.68;;;;;;;15.54;42.63;95292.56;4918571;28;20027;-94
2023/05/22 00:39:45;;;;;;;9.73;7.63;;;;;;;15.45;43.86;95288.50;4916399;29;20043;-93
2023/05/22 00:42:11;;;;;;;8.80;7.30;;;;;;;15.40;44.23;95296.41;4912569;29;20063;-93
2023/05/22 00:44:36;;;;;;;9.95;7.72;;;;;;;15.42;43.51;95292.47;4919091;29;20058;-94
2023/05/22 00:47:02;;;;;;;9.55;7.53;;;;;;;15.41;43.73;95298.03;4922602;29;20035;-94
2023/05/22 00:49:27;;;;;;;12.63;7.22;;;;;;;15.51;42.69;95289.50;4921539;29;20043;-94
2023/05/22 00:51:53;;;;;;;10.60;7.88;;;;;;;15.56;43.18;95293.22;4949962;28;20047;-95
2023/05/22 00:54:18;;;;;;;10.13;7.50;;;;;;;15.51;42.79;95297.56;4935644;29;20046;-95
2023/05/22 00:56:43;;;;;;;8.77;7.20;;;;;;;15.60;42.63;95294.41;4922302;29;20050;-94
2023/05/22 00:59:09;;;;;;;8.90;6.88;;;;;;;15.72;42.31;95291.03;4915153;29;20051;-93
2023/05/22 01:01:37;;;;;;;11.35;7.40;;;;;;;15.75;42.34;95288.72;4933709;28;20034;-91
2023/05/22 01:04:06;;;;;;;8.30;7.30;;;;;;;15.74;42.87;95289.75;4914929;29;20047;-95
2023/05/22 01:06:32;;;;;;;11.48;7.88;;;;;;;15.66;43.55;95295.41;4935387;29;20407;-91
2023/05/22 01:08:57;;;;;;;9.68;7.53;;;;;;;15.83;42.54;95289.47;4939152;29;20020;-93
2023/05/22 01:12:07;;;;;;;11.43;7.53;;;;;;;15.85;42.95;95295.47;4923934;29;20050;-93
2023/05/22 01:14:58;;;;;;;11.23;7.32;;;;;;;15.86;42.64;95289.06;4924248;29;20078;-93
2023/05/22 01:17:46;;;;;;;10.95;7.22;;;;;;;15.78;42.78;95286.66;4906471;29;20198;-94
2023/05/22 01:20:17;;;;;;;8.10;6.90;;;;;;;15.77;42.48;95290.38;4918285;29;20043;-92
2023/05/22 01:22:57;;;;;;;9.85;6.90;;;;;;;15.78;43.02;95284.81;4946563;28;20579;-94
2023/05/22 01:25:31;;;;;;;10.52;7.40;;;;;;;15.67;43.67;95286.31;4945109;28;20059;-93
2023/05/22 01:27:59;;;;;;;9.85;7.75;;;;;;;15.68;43.54;95285.28;4938008;29;20045;-93
2023/05/22 01:30:47;;;;;;;9.65;7.72;;;;;;;15.79;43.02;95291.81;4940291;28;20043;-94
2023/05/22 01:33:14;;;;;;;8.77;7.13;;;;;;;15.81;42.95;95287.03;4942827;29;20045;-93
2023/05/22 01:35:40;;;;;;;;;;;;;;;15.86;43.00;95279.16;4940821;28;20039;-94
2023/05/22 01:38:06;;;;;;;9.20;7.17;;;;;;;15.88;42.77;95284.31;4949007;28;19969;-93
2023/05/22 01:40:31;;;;;;;10.82;7.35;;;;;;;15.83;42.52;95284.13;4928976;29;20301;-93
2023/05/22 01:42:57;;;;;;;10.55;7.82;;;;;;;15.76;43.65;95284.19;4941829;29;20051;-93
2023/05/22 01:45:22;;;;;;;8.18;7.10;;;;;;;15.67;43.16;95280.94;4917091;29;20161;-93
2023/05/22 01:47:48;;;;;;;12.05;7.30;;;;;;;15.69;43.30;95278.88;4935243;28;20051;-94
2023/05/22 01:50:13;;;;;;;10.27;7.32;;;;;;;15.71;43.95;95287.50;4936115;29;20047;-94
2023/05/22 01:52:42;;;;;;;14.10;7.57;;;;;;;15.72;43.92;95277.63;4937696;29;20027;-94
2023/05/22 01:55:16;;;;;;;11.27;7.00;;;;;;;15.70;43.48;95285.03;4933691;28;20695;-95
2023/05/22 01:58:07;;;;;;;8.82;6.93;;;;;;;15.68;43.84;95279.94;4934852;28;20027;-93
2023/05/22 02:00:32;;;;;;;12.93;7.50;;;;;;;15.72;43.41;95289.19;4934486;29;20613;-94
2023/05/22 02:03:02;;;;;;;9.57;7.32;;;;;;;15.65;43.55;95279.53;4918204;29;20043;-95
2023/05/22 02:05:28;;;;;;;9.82;7.03;;;;;;;15.70;43.66;95279.69;4934162;29;20450;-94
2023/05/22 02:07:55;;;;;;;9.73;7.38;;;;;;;15.65;43.66;95272.31;4948213;28;20045;-93
2023/05/22 02:10:20;;;;;;;11.20;7.65;;;;;;;15.62;43.80;95278.09;4927596;29;20055;-94
2023/05/22 02:12:46;;;;;;;10.82;7.13;;;;;;;15.67;43.69;95280.94;4938289;28;20042;-95
2023/05/22 02:15:11;;;;;;;11.43;6.93;;;;;;;15.71;43.24;95278.66;4936133;29;20031;-94
2023/05/22 02:17:39;;;;;;;9.05;7.50;;;;;;;15.70;43.52;95269.78;4917944;29;20050;-94
2023/05/22 02:20:15;;;;;;;9.10;7.25;;;;;;;15.70;43.46;95263.56;4931246;28;20047;-93
2023/05/22 02:22:44;;;;;;;9.80;6.60;;;;;;;15.70;43.27;95271.63;4922061;29;20043;-95
2023/05/22 02:25:13;;;;;;;8.73;6.95;;;;;;;15.66;43.38;95268.56;4903968;29;20271;-94
2023/05/22 02:27:45;;;;;;;9.20;7.13;;;;;;;15.60;43.17;95262.22;4913402;29;20100;-94
2023/05/22 02:30:12;;;;;;;9.45;6.88;;;;;;;15.60;43.04;95269.44;4947710;28;20047;-94
2023/05/22 02:32:38;;;;;;;9.88;6.68;;;;;;;15.64;43.21;95267.16;4917077;28;20418;-94
2023/05/22 02:35:04;;;;;;;12.73;7.22;;;;;;;15.63;43.33;95269.00;4918932;29;20043;-94
2023/05/22 02:37:30;;;;;;;9.25;6.63;;;;;;;15.57;43.44;95264.53;4916336;29;20537;-95
2023/05/22 02:39:56;;;;;;;8.18;6.78;;;;;;;15.51;43.38;95260.00;4916977;29;20616;-93
2023/05/22 02:42:22;;;;;;;10.02;7.47;;;;;;;15.34;43.50;95255.19;4938344;28;20049;-95
2023/05/22 02:44:47;;;;;;;9.75;7.07;;;;;;;15.41;43.75;95264.00;4930384;28;20682;-93
2023/05/22 02:47:13;;;;;;;8.48;7.22;;;;;;;15.40;43.57;95258.84;4923028;29;20043;-93
2023/05/22 02:49:39;;;;;;;9.02;6.50;;;;;;;15.42;43.57;95257.59;4935406;29;20059;-93
2023/05/22 02:52:04;;;;;;;10.57;7.25;;;;;;;15.43;43.38;95259.22;4930871;29;20049;-92
2023/05/22 02:54:30;;;;;;;10.13;7.32;;;;;;;15.45;43.77;95254.47;4918966;29;20118;-93
2023/05/22 02:56:55;;;;;;;11.70;7.03;;;;;;;15.49;43.60;95252.16;4918627;29;20522;-94
2023/05/22 02:59:21;;;;;;;9.25;7.10;;;;;;;15.51;43.35;95257.31;4920933;29;20032;-93
2023/05/22 03:01:47;;;;;;;7.78;6.65;;;;;;;15.47;43.45;95255.06;4934663;28;20046;-94
2023/05/22 03:04:12;;;;;;;9.93;6.68;;;;;;;15.44;43.31;95244.75;4946886;28;20035;-89
2023/05/22 03:06:38;;;;;;;9.90;6.47;;;;;;;15.44;43.29;95249.31;4935059;29;20070;-91
2023/05/22 03:09:04;;;;;;;11.43;7.22;;;;;;;15.34;43.46;95249.81;4923377;29;20035;-91
2023/05/22 03:11:30;;;;;;;10.25;6.80;;;;;;;15.31;43.65;95247.56;4937614;29;20070;-91
2023/05/22 03:13:56;;;;;;;9.20;6.85;;;;;;;15.32;43.36;95246.50;4936750;28;20063;-92
2023/05/22 03:16:21;;;;;;;8.77;6.78;;;;;;;15.30;43.57;95253.97;4922142;29;20043;-92
2023/05/22 03:18:49;;;;;;;12.57;7.25;;;;;;;15.30;43.33;95245.94;4920059;29;20035;-93
2023/05/22 03:21:15;;;;;;;11.50;7.50;;;;;;;15.27;43.46;95244.50;4930411;29;20415;-91
2023/05/22 03:23:43;;;;;;;11.82;7.32;;;;;;;15.29;43.42;95249.63;4919070;29;20039;-94
2023/05/22 03:26:10;;;;;;;10.10;7.28;;;;;;;15.27;43.39;95251.72;4921865;29;20335;-93
2023/05/22 03:28:35;;;;;;;8.88;6.88;;;;;;;15.28;43.29;95248.81;4918209;29;20073;-92
2023/05/22 03:31:00;;;;;;;8.40;6.95;;;;;;;15.28;43.25;95253.34;4919395;29;20042;-92
2023/05/22 03:33:26;;;;;;;9.32;6.97;;;;;;;15.24;43.28;95250.28;4937631;29;20023;-91
2023/05/22 03:35:52;;;;;;;9.88;6.90;;;;;;;15.20;43.74;95251.78;4949392;28;20320;-91
2023/05/22 03:38:17;;;;;;;10.68;6.65;;;;;;;15.17;43.58;95244.16;4935383;29;20051;-91
2023/05/22 03:40:43;;;;;;;10.30;6.93;;;;;;;15.14;43.77;95248.09;4924237;29;20027;-92
2023/05/22 03:43:08;;;;;;;10.13;6.88;;;;;;;15.16;43.76;95242.50;4922995;29;20074;-91
2023/05/22 03:45:33;;;;;;;9.80;6.60;;;;;;;15.16;43.52;95251.38;4923153;29;20600;-92
2023/05/22 03:47:59;;;;;;;8.57;7.00;;;;;;;15.16;43.81;95248.69;4921966;29;20686;-90
2023/05/22 03:50:24;;;;;;;9.02;7.00;;;;;;;15.14;44.15;95247.25;4920319;29;20040;-92
2023/05/22 03:52:50;;;;;;;11.35;7.03;;;;;;;15.17;43.71;95236.94;4921046;29;20047;-91
2023/05/22 03:55:15;;;;;;;10.38;7.05;;;;;;;15.01;44.28;95237.44;4934277;29;20050;-91
2023/05/22 03:57:41;;;;;;;10.93;7.80;;;;;;;14.77;44.34;95242.53;4935802;28;20727;-92
2023/05/22 04:00:08;;;;;;;10.43;7.15;;;;;;;14.93;44.16;95246.56;4935892;29;20047;-91
2023/05/22 04:02:43;;;;;;;8.30;7.27;;;;;;;14.74;44.76;95245.63;4936745;29;20127;-91
2023/05/22 04:05:08;;;;;;;11.77;7.18;;;;;;;14.76;44.48;95246.25;4924322;29;20097;-90
2023/05/22 04:07:35;;;;;;;12.88;7.78;;;;;;;14.49;44.78;95247.16;4936444;28;20617;-91
2023/05/22 04:10:01;;;;;;;9.52;7.40;;;;;;;14.71;44.85;95250.34;4925511;29;20031;-92
2023/05/22 04:12:27;;;;;;;10.20;6.97;;;;;;;14.66;44.94;95242.16;4934141;29;20570;-91
2023/05/22 04:14:53;;;;;;;9.20;7.38;;;;;;;14.65;45.13;95247.72;4939244;29;20036;-91
2023/05/22 04:17:18;;;;;;;9.52;7.10;;;;;;;14.42;45.58;95252.50;4923139;29;20035;-90
2023/05/22 04:19:43;;;;;;;9.90;7.43;;;;;;;14.36;46.23;95265.94;4942598;29;20024;-91
2023/05/22 04:22:09;;;;;;;10.23;7.05;;;;;;;14.70;44.84;95262.13;4933706;29;20035;-92
2023/05/22 04:24:34;;;;;;;11.20;7.78;;;;;;;14.70;45.77;95266.63;4930300;29;20032;-92
2023/05/22 04:27:01;;;;;;;9.88;7.55;;;;;;;;;;4931722;29;20051;-90
2023/05/22 04:29:27;;;;;;;9.10;7.00;;;;;;;15.23;44.41;95264.75;4954055;28;20721;-92
2023/05/22 04:31:54;;;;;;;9.48;7.60;;;;;;;15.55;43.65;95264.72;4930279;29;20050;-91
2023/05/22 04:34:20;;;;;;;8.68;7.30;;;;;;;15.51;44.30;95265.38;4920755;29;20721;-91
2023/05/22 04:36:46;;;;;;;11.77;7.43;;;;;;;15.46;44.47;95263.31;4918671;29;20054;-92
2023/05/22 04:39:15;;;;;;;9.80;7.30;;;;;;;15.74;43.48;95259.44;4915164;29;20113;-91
2023/05/22 04:41:40;;;;;;;12.23;7.10;;;;;;;15.98;43.21;95263.13;4922007;28;20038;-92
2023/05/22 04:44:06;;;;;;;10.27;7.28;;;;;;;16.11;43.22;95266.72;4936340;29;20035;-92
2023/05/22 04:46:33;;;;;;;10.98;7.20;;;;;;;16.32;42.85;95268.16;4940338;29;20027;-92
2023/05/22 04:49:00;;;;;;;9.70;6.82;;;;;;;16.47;43.00;95275.88;4921165;29;20023;-91
2023/05/22 04:51:33;;;;;;;;;;;;;;;16.50;42.95;95277.31;4935947;29;20203;-91
2023/05/22 04:53:59;;;;;;;11.68;6.93;;;;;;;16.60;42.84;95277.59;4937806;29;19924;-92
2023/05/22 04:56:25;;;;;;;8.23;6.70;;;;;;;16.69;43.08;95275.41;4936599;29;20059;-91
2023/05/22 04:58:54;;;;;;;11.48;6.70;;;;;;;16.86;42.85;95280.19;4935976;28;20035;-90
2023/05/22 05:01:20;;;;;;;8.77;6.60;;;;;;;17.01;42.71;95279.78;4915858;29;20038;-96
2023/05/22 05:03:46;;;;;;;7.68;6.55;;;;;;;17.16;42.41;95279.38;4932569;29;20043;-96
2023/05/22 05:06:11;;;;;;;8.80;6.97;;;;;;;17.30;42.32;95282.69;4924082;29;20513;-94
2023/05/22 05:08:37;;;;;;;10.43;6.95;;;;;;;17.52;41.83;95274.94;4918222;29;20419;-95
2023/05/22 05:11:02;;;;;;;11.18;6.93;;;;;;;17.67;41.76;95273.66;4930182;29;20046;-95
2023/05/22 05:13:28;;;;;;;8.80;6.90;;;;;;;17.66;41.48;95280.09;4938860;28;20054;-93
2023/05/22 05:15:53;;;;;;;8.15;6.72;;;;;;;17.85;41.58;95280.84;4922787;29;20073;-92
2023/05/22 05:18:19;;;;;;;9.45;7.10;;;;;;;17.95;41.50;95284.84;4935719;29;20039;-93
2023/05/22 05:20:45;;;;;;;9.82;7.13;;;;;;;17.75;41.90;95283.28;4935164;29;20421;-93
2023/05/22 05:23:10;;;;;;;8.60;6.93;;;;;;;17.71;42.34;95287.50;4935293;28;20262;-92
2023/05/22 05:25:37;;;;;;;9.10;6.93;;;;;;;18.25;41.24;95282.03;4940455;28;20537;-93
2023/05/22 05:28:09;;;;;;;7.78;6.40;;;;;;;18.51;40.66;95276.38;4953496;28;20033;-92
2023/05/22 05:30:36;;;;;;;7.93;6.00;;;;;;;18.69;40.64;95272.72;4925928;29;20055;-93
2023/05/22 05:33:01;;;;;;;8.80;6.95;;;;;;;18.90;39.52;95279.34;4924857;29;20037;-93
2023/05/22 05:35:27;;;;;;;8.93;7.00;;;;;;;18.51;40.71;95284.47;4910161;29;20036;-92
2023/05/22 05:37:52;;;;;;;14.07;7.20;;;;;;;17.70;41.25;95283.97;4911017;28;20028;-94
2023/05/22 05:40:18;;;;;;;10.05;7.22;;;;;;;17.59;41.37;95282.06;4909577;28;20086;-92
2023/05/22 05:42:43;;;;;;;9.38;7.18;;;;;;;17.61;42.22;95282.69;4925544;29;20079;-92
2023/05/22 05:45:09;;;;;;;10.30;7.10;;;;;;;17.48;42.43;95281.84;4910132;29;20032;-92
2023/05/22 05:47:35;;;;;;;9.10;6.80;;;;;;;17.38;42.01;95278.88;4925537;29;20036;-92
2023/05/22 05:50:00;;;;;;;10.75;7.20;;;;;;;18.10;41.76;95279.81;4910148;29;20055;-93
2023/05/22 05:52:31;;;;;;;12.07;6.70;;;;;;;18.68;40.06;95282.72;4910414;29;20028;-93
2023/05/22 05:54:59;;;;;;;9.77;6.60;;;;;;;18.90;39.39;95283.94;4905521;29;20048;-94
2023/05/22 05:57:25;;;;;;;8.38;6.68;;;;;;;19.07;37.13;95284.78;4907497;29;20059;-92
2023/05/22 05:59:51;;;;;;;9.68;6.75;;;;;;;19.08;39.07;95286.44;4925703;29;20039;-93
2023/05/22 06:02:16;;;;;;;10.07;7.13;;;;;;;19.20;39.03;95291.78;4923499;29;20055;-93
2023/05/22 06:04:42;;;;;;;8.05;6.57;;;;;;;19.52;36.36;95290.50;4922557;29;20035;-93
2023/05/22 06:07:08;;;;;;;10.40;7.00;;;;;;;19.27;39.06;95294.34;4925732;29;20047;-93
2023/05/22 06:09:33;;;;;;;8.68;7.00;;;;;;;19.36;38.70;95296.66;4928260;29;20035;-94
2023/05/22 06:12:00;;;;;;;11.23;7.28;;;;;;;19.50;39.09;95299.88;4927388;29;20447;-93
2023/05/22 06:14:25;;;;;;;10.57;7.00;;;;;;;19.30;38.52;95298.44;4919403;29;20473;-94
2023/05/22 06:16:52;;;;;;;9.52;7.13;;;;;;;19.17;37.87;95299.56;4953344;29;20039;-93
2023/05/22 06:19:18;;;;;;;10.30;6.97;;;;;;;19.08;38.83;95302.59;4930242;29;20035;-94
2023/05/22 06:21:43;;;;;;;11.77;7.45;;;;;;;18.90;39.21;95300.13;4919337;28;20058;-94
2023/05/22 06:24:09;;;;;;;9.18;7.53;;;;;;;19.01;39.78;95303.81;4922371;29;20034;-94
2023/05/22 06:26:35;;;;;;;10.00;7.00;;;;;;;18.96;39.47;95301.84;4922214;29;20043;-93
2023/05/22 06:29:01;;;;;;;9.30;7.03;;;;;;;19.38;38.24;95302.66;4898619;29;20118;-94
2023/05/22 06:31:26;;;;;;;8.43;7.00;;;;;;;19.54;37.19;95304.56;4939805;28;20071;-93
2023/05/22 06:33:52;;;;;;;9.93;7.05;;;;;;;19.57;37.36;95304.06;4917113;28;20035;-93
2023/05/22 06:36:17;;;;;;;10.48;7.10;;;;;;;19.42;37.88;95306.50;4921841;29;20039;-93
2023/05/22 06:38:44;;;;;;;9.50;6.82;;;;;;;19.68;36.66;95302.34;4919865;29;20035;-93
2023/05/22 06:41:11;;;;;;;8.82;6.88;;;;;;;19.47;38.51;95309.28;4935197;29;20049;-94
2023/05/22 06:43:36;;;;;;;10.32;7.60;;;;;;;19.42;37.19;95310.03;4917594;29;20040;-93
2023/05/22 06:46:02;;;;;;;10.10;7.38;;;;;;;19.69;36.91;95314.78;4912593;28;20047;-92
2023/05/22 06:48:27;;;;;;;11.85;9.00;;;;;;;20.02;35.21;95306.97;4914896;29;20171;-93
2023/05/22 06:50:53;;;;;;;10.68;7.00;;;;;;;20.27;36.20;95313.84;4923748;29;20051;-93
2023/05/22 06:53:19;;;;;;;13.93;8.13;;;;;;;20.05;36.98;95309.19;4937475;29;20039;-93
2023/05/22 06:55:44;;;;;;;10.48;7.60;;;;;;;20.30;34.44;95316.06;4924767;29;20036;-94
2023/05/22 06:58:10;;;;;;;10.88;8.68;;;;;;;20.59;34.40;95312.38;4923428;29;20051;-93
2023/05/22 07:00:39;;;;;;;14.48;9.90;;;;;;;20.79;34.64;95319.13;4947158;29;20035;-94
2023/05/22 07:03:05;;;;;;;12.25;9.20;;;;;;;20.86;33.98;95317.91;4953328;28;20079;-93
2023/05/22 07:05:31;;;;;;;12.07;8.63;;;;;;;20.72;35.23;95322.03;4974641;28;20137;-93
2023/05/22 07:07:57;;;;;;;10.65;7.22;;;;;;;21.12;34.87;95326.28;4928401;29;20415;-94
2023/05/22 07:10:26;;;;;;;12.85;10.18;;;;;;;21.43;33.09;95322.31;4945610;28;20051;-94
2023/05/22 07:12:52;;;;;;;13.13;9.00;;;;;;;21.84;33.42;95330.84;4930159;29;20047;-94
2023/05/22 07:15:18;;;;;;;12.40;9.50;;;;;;;21.88;31.46;95321.13;4953533;28;20040;-94
2023/05/22 07:17:45;;;;;;;10.88;6.80;;;;;;;22.10;33.06;95324.84;4948600;28;20036;-95
2023/05/22 07:20:11;;;;;;;15.50;11.10;;;;;;;22.21;30.80;95320.31;4928069;29;20051;-93
2023/05/22 07:22:37;;;;;;;11.77;10.23;;;;;;;22.44;30.23;95323.72;4966506;28;20829;-93
2023/05/22 07:25:03;;;;;;;11.77;10.48;;;;;;;22.45;30.51;95322.63;4951320;28;20051;-94
2023/05/22 07:27:31;;;;;;;13.93;10.37;;;;;;;22.74;30.05;95319.56;4939636;29;20701;-94
2023/05/22 07:29:57;;;;;;;13.27;9.80;;;;;;;23.00;31.08;95317.78;4933485;28;20059;-93
2023/05/22 07:32:24;;;;;;;13.05;9.35;;;;;;;23.14;29.89;95323.56;4916632;29;20028;-94
2023/05/22 07:34:49;;;;;;;;;;;;;;;23.33;30.13;95322.25;4923343;29;20047;-94
2023/05/22 07:37:18;;;;;;;8.27;6.37;;;;;;;23.07;31.45;95317.53;4949175;29;19994;-94
2023/05/22 07:39:49;;;;;;;9.82;6.85;;;;;;;23.37;29.93;95315.19;4939005;29;20043;-96
2023/05/22 07:42:16;;;;;;;10.52;6.90;;;;;;;22.26;31.38;95321.16;4957554;28;20031;-95
2023/05/22 07:44:41;;;;;;;9.32;6.55;;;;;;;22.21;31.83;95323.84;4923568;29;20039;-94
2023/05/22 07:47:07;;;;;;;13.68;7.97;;;;;;;21.55;33.48;95325.69;4911229;29;20044;-94
2023/05/22 07:49:33;;;;;;;14.13;8.88;;;;;;;22.62;31.43;95326.03;4941991;29;20075;-95
2023/05/22 07:51:58;;;;;;;9.07;6.30;;;;;;;23.57;30.84;95319.84;4918931;29;20035;-95
2023/05/22 07:54:24;;;;;;;9.95;7.13;;;;;;;23.56;30.43;95318.22;4914621;29;20483;-93
2023/05/22 07:56:51;;;;;;;10.88;6.32;;;;;;;23.88;29.84;95321.81;4915651;29;20712;-93
2023/05/22 07:59:18;;;;;;;10.45;7.13;;;;;;;24.07;29.85;95317.44;4922516;29;20047;-96
2023/05/22 08:01:53;;;;;;;10.73;7.40;;;;;;;24.01;30.30;95329.44;4935054;29;20031;-95
2023/05/22 08:04:18;;;;;;;11.02;8.50;;;;;;;23.83;30.11;95324.53;4919473;29;20042;-94
2023/05/22 08:06:44;;;;;;;13.75;7.65;;;;;;;23.38;31.54;95328.50;4934660;28;20039;-94
2023/05/22 08:09:10;;;;;;;9.95;7.68;;;;;;;22.48;33.42;95332.94;4920174;29;20110;-93
2023/05/22 08:11:36;;;;;;;10.93;7.50;;;;;;;22.86;33.42;95331.03;4916656;29;20043;-93
2023/05/22 08:14:05;;;;;;;10.43;7.20;;;;;;;23.62;31.58;95330.72;4918998;29;20043;-93
2023/05/22 08:16:40;;;;;;;9.98;7.50;;;;;;;24.02;31.26;95330.22;4917212;29;20040;-93
2023/05/22 08:19:08;;;;;;;10.32;8.10;;;;;;;23.68;32.96;95331.53;4918176;29;20113;-94
2023/05/22 08:22:25;;;;;;;9.43;7.75;;;;;;;23.76;31.94;95332.94;4925419;29;20059;-94
2023/05/22 08:24:51;;;;;;;11.98;7.35;;;;;;;23.83;31.21;95328.06;4938981;29;20056;-95
2023/05/22 08:27:16;;;;;;;12.68;8.07;;;;;;;24.07;32.00;95330.25;4931450;29;20130;-95
2023/05/22 08:29:42;;;;;;;11.52;6.72;;;;;;;22.85;35.19;95340.25;4918836;28;20090;-94
2023/05/22 08:32:08;;;;;;;8.50;7.35;;;;;;;22.85;34.44;95331.28;4932742;29;20044;-94
2023/05/22 08:34:34;;;;;;;13.98;8.13;;;;;;;22.72;34.27;95329.84;4916330;29;20036;-94
2023/05/22 08:36:59;;;;;;;9.77;7.72;;;;;;;22.86;34.05;95327.47;4932829;29;20396;-95
2023/05/22 08:39:25;;;;;;;11.50;8.68;;;;;;;22.87;34.07;95329.94;4900074;29;20040;-93
2023/05/22 08:41:50;;;;;;;13.45;8.60;;;;;;;23.07;33.28;95325.66;4913430;29;20034;-94
2023/05/22 08:44:18;;;;;;;11.93;7.95;;;;;;;22.90;34.86;95323.97;4910824;29;20031;-95
2023/05/22 08:46:44;;;;;;;11.73;8.02;;;;;;;22.78;37.50;95326.91;4944879;29;20044;-94
2023/05/22 08:49:11;;;;;;;11.15;8.48;;;;;;;22.61;35.26;95324.38;4913604;29;20035;-94
2023/05/22 08:51:43;;;;;;;11.63;8.48;;;;;;;23.03;33.25;95324.56;4926378;29;20035;-94
2023/05/22 08:54:09;;;;;;;10.60;7.93;;;;;;;22.48;36.14;95328.34;4911504;29;20126;-96
2023/05/22 08:56:35;;;;;;;11.98;8.80;;;;;;;22.17;36.79;95328.16;4928302;29;20472;-94
2023/05/22 08:59:00;;;;;;;11.60;9.27;;;;;;;22.72;34.09;95317.13;4924104;29;20039;-93
2023/05/22 09:01:30;;;;;;;11.68;8.43;;;;;;;22.65;36.42;95322.78;4927311;29;20479;-94
2023/05/22 09:03:59;;;;;;;11.20;8.38;;;;;;;22.14;37.77;95328.66;4927251;29;20037;-94
2023/05/22 09:06:25;;;;;;;10.88;8.52;;;;;;;21.70;38.44;95335.88;4908530;29;20032;-93
2023/05/22 09:08:52;;;;;;;11.50;8.13;;;;;;;21.26;39.69;95331.34;4910443;29;20086;-94
2023/05/22 09:11:18;;;;;;;10.88;8.32;;;;;;;21.33;38.65;95329.28;4923555;29;20152;-92
2023/05/22 09:13:44;;;;;;;9.87;8.37;;;;;;;21.60;37.16;95330.34;4911074;28;20035;-93
2023/05/22 09:16:10;;;;;;;14.38;8.07;;;;;;;21.34;38.59;95330.91;4943094;28;20035;-94
2023/05/22 09:18:38;;;;;;;9.65;7.55;;;;;;;21.25;40.00;95332.41;4941325;28;20144;-93
2023/05/22 09:21:04;;;;;;;;;;;;;;;20.65;40.67;95332.22;4914016;29;20032;-93
2023/05/22 09:23:29;;;;;;;9.60;8.38;;;;;;;20.50;41.51;95330.94;4926212;29;20397;-94
2023/05/22 09:26:01;;;;;;;14.07;7.80;;;;;;;20.31;43.33;95335.78;4924819;28;20402;-93
2023/05/22 09:28:31;;;;;;;10.43;8.48;;;;;;;20.16;43.15;95336.38;4928389;28;20019;-93
2023/05/22 09:30:57;;;;;;;12.70;7.95;;;;;;;19.53;43.75;95331.78;4930618;29;20035;-93
2023/05/22 09:33:22;;;;;;;11.20;8.15;;;;;;;19.72;42.91;95333.22;4920321;29;20517;-92
2023/05/22 09:35:50;;;;;;;10.82;8.48;;;;;;;19.87;43.13;95323.72;4917552;28;20062;-92
2023/05/22 09:38:16;;;;;;;11.35;7.57;;;;;;;19.48;43.70;95332.53;4950856;28;20047;-92
2023/05/22 09:40:41;;;;;;;11.40;8.70;;;;;;;19.82;42.23;95324.47;4935123;29;20066;-92
2023/05/22 09:43:29;;;;;;;10.13;8.10;;;;;;;19.29;43.22;95332.72;4917231;29;20047;-90
2023/05/22 09:45:56;;;;;;;14.82;8.48;;;;;;;18.54;44.87;95340.59;4944493;28;20043;-91
2023/05/22 09:48:22;;;;;;;11.93;9.13;;;;;;;19.45;44.37;95328.41;4919318;29;20318;-92
2023/05/22 09:50:48;;;;;;;12.25;9.27;;;;;;;18.97;44.51;95338.56;4928639;28;20055;-93
2023/05/22 09:53:14;;;;;;;12.90;8.38;;;;;;;19.16;43.61;95335.66;4916576;29;20749;-93
2023/05/22 09:55:40;;;;;;;13.63;9.93;;;;;;;19.17;43.79;95342.72;4944322;28;20047;-93
2023/05/22 09:58:07;;;;;;;12.50;9.00;;;;;;;19.57;43.24;95341.88;4917994;29;20047;-92
2023/05/22 10:00:33;;;;;;;14.90;10.65;;;;;;;19.26;43.97;95335.03;4903840;28;20133;-93
2023/05/22 10:03:05;;;;;;;12.95;10.38;;;;;;;20.14;41.58;95338.50;4899037;29;20154;-92
2023/05/22 10:05:31;;;;;;;15.65;10.50;;;;;;;20.53;42.18;95335.00;4932632;29;20038;-94
2023/05/22 10:08:01;;;;;;;14.45;10.30;;;;;;;19.99;42.14;95342.59;4913248;29;20035;-93
2023/05/22 10:10:27;;;;;;;13.30;10.25;;;;;;;20.03;42.27;95342.91;4927519;29;20518;-94
2023/05/22 10:13:11;;;;;;;14.43;10.50;;;;;;;20.21;42.94;95339.13;4934502;28;20027;-94
2023/05/22 10:15:36;;;;;;;12.27;10.13;;;;;;;21.02;39.01;95345.13;4945097;28;20039;-93
2023/05/22 10:18:02;;;;;;;12.15;10.30;;;;;;;20.81;41.11;95333.25;4931459;29;20036;-95
2023/05/22 10:20:28;;;;;;;16.20;10.32;;;;;;;20.07;41.41;95353.00;4933449;29;20042;-95
2023/05/22 10:22:54;;;;;;;14.65;10.20;;;;;;;19.71;43.07;95342.38;4920334;29;20536;-94
2023/05/22 10:25:22;;;;;;;15.23;12.07;;;;;;;20.22;41.74;95338.91;4945423;28;20125;-95
2023/05/22 10:27:48;;;;;;;14.20;10.05;;;;;;;19.72;43.70;95335.09;4912245;28;20027;-95
2023/05/22 10:30:32;;;;;;;15.10;10.98;;;;;;;19.75;44.41;95334.59;4939370;29;20035;-94
2023/05/22 10:33:12;;;;;;;14.32;10.98;;;;;;;19.96;43.18;95338.47;4953602;28;20402;-93
2023/05/22 10:35:51;;;;;;;17.27;10.70;;;;;;;20.03;42.60;95335.66;4911456;29;20491;-92
2023/05/22 10:38:19;;;;;;;15.20;11.80;;;;;;;20.41;40.88;95337.81;4913586;29;20654;-94
2023/05/22 10:40:45;;;;;;;13.43;10.88;;;;;;;20.72;41.18;95328.28;4923665;29;20023;-92
2023/05/22 10:43:10;;;;;;;18.08;11.10;;;;;;;20.70;42.29;95332.31;4915208;29;20051;-93
2023/05/22 10:45:36;;;;;;;17.45;11.73;;;;;;;20.44;41.86;95327.34;4936707;28;20435;-94
2023/05/22 10:48:05;;;;;;;14.40;11.60;;;;;;;21.16;40.58;95328.50;4927535;29;20526;-93
2023/05/22 10:50:31;;;;;;;14.43;10.65;;;;;;;21.06;39.73;95321.91;4905828;29;20107;-93
2023/05/22 10:53:22;;;;;;;18.10;11.02;;;;;;;20.87;40.46;95332.22;4924553;29;20031;-94
2023/05/22 10:55:49;;;;;;;16.30;12.45;;;;;;;21.15;39.49;95318.75;4928533;29;20118;-93
2023/05/22 10:58:23;;;;;;;14.50;11.00;;;;;;;21.24;40.34;95325.34;4926992;29;20732;-93
2023/05/22 11:01:18;;;;;;;14.20;10.48;;;;;;;21.67;38.60;95322.00;4914624;29;20049;-96
2023/05/22 11:03:57;;;;;;;15.57;11.88;;;;;;;21.64;38.30;95318.75;4933974;29;20590;-94
2023/05/22 11:06:32;;;;;;;20.13;11.80;;;;;;;21.29;41.85;95319.22;4930623;29;20541;-92
2023/05/22 11:08:57;;;;;;;17.88;11.70;;;;;;;20.84;40.84;95317.31;4941145;28;20104;-92
2023/05/22 11:11:26;;;;;;;14.93;9.68;;;;;;;20.21;40.73;95317.53;4917754;29;20043;-94
2023/05/22 11:13:52;;;;;;;15.32;11.30;;;;;;;20.64;40.45;95326.00;4930279;28;20422;-94
2023/05/22 11:16:18;;;;;;;16.10;10.55;;;;;;;20.77;41.62;95313.19;4920250;28;20042;-93
2023/05/22 11:18:43;;;;;;;13.02;9.40;;;;;;;20.30;40.55;95315.22;4916249;29;20031;-93
2023/05/22 11:21:12;;;;;;;14.60;10.48;;;;;;;20.23;41.57;95310.81;4932070;28;20058;-92
2023/05/22 11:23:38;;;;;;;14.10;10.18;;;;;;;20.60;41.99;95309.41;4928746;28;20039;-93
2023/05/22 11:26:20;;;;;;;16.63;11.38;;;;;;;20.51;42.12;95316.34;4942691;28;20609;-93
2023/05/22 11:28:50;;;;;;;16.23;11.20;;;;;;;20.76;39.68;95314.25;4913126;29;20086;-91
2023/05/22 11:31:16;;;;;;;17.63;11.18;;;;;;;20.27;40.57;95324.66;4912038;29;20040;-92